Sultan, WA

6:27 PM PDT on September 19, 2014 (GMT -0700)
Boeing Field-King County International | Change Station
CLOSE
Current Station
Airport
Location: Seattle Boeing,
Elevation: 16 ft
Nearby Weather Stations

Elev 16 ft 47.53 °N, 122.30 °W | Updated 34 minutes ago

Partly Cloudy
Partly Cloudy
76 °F
Feels Like 76 °F
N
0
Wind Variable Wind from North

Today
High -- | Low -- °F
--% Chance of Precip.
Yesterday
High -- | Low -- °F
Precip. -- in
6:49 AM 7:10 PM
Waning Crescent, 15% visible
Pressure 30.06 in
Visibility 10.0 miles
Clouds Mostly Cloudy 4200 ft
Dew Point 56 °F
Humidity 50%
Rainfall 0.00 in
Snow Depth 0 in , 0 in , 0 in
UV 0 out of 12
Pollen 1.10 out of 12
PM2.5 Good
Flu Activity Not available.
METAR KBFI 200053Z 00000KT 10SM BKN042 24/13 A3006 RMK AO2 SLP179 T02440133

More Conditions Fewer Conditions

Pressure 30.06 in
Visibility 10.0 miles
Clouds Mostly Cloudy 4200 ft
Dew Point 56 °F
Humidity 50%
Rainfall 0.00 in
Snow Depth 0 in , 0 in , 0 in
UV 0 out of 12
Pollen 1.10 out of 12
PM2.5 Good
Flu Activity Not available.
METAR KBFI 200053Z 00000KT 10SM BKN042 24/13 A3006 RMK AO2 SLP179 T02440133

More Conditions Fewer Conditions

10-Day Weather Forecast

Almanac

Astronomy

Sep. 19, 2014 Rise Set
Actual Time 6:49 AM PDT 7:10 PM PDT
Civil Twilight 6:18 AM PDT 7:41 PM PDT
Nautical Twilight 5:42 AM PDT 8:18 PM PDT
Astronomical Twilight 5:04 AM PDT 8:56 PM PDT
Moon 2:25 AM PDT (9/19) 4:55 PM PDT (9/19)
Length of Visible Light 13h 22m
Length of Day
12h 21m
Tomorrow will be 3m 26s shorter.
Waning Crescent, 15% of the Moon is Illuminated
Today
Waning Crescent
Sep 24
New
Oct 1
First Quarter
Oct 8
Full
Oct 15
Last Quarter

Today's Extremes

State Highs State Lows

Community

WunderPhotos

Upload Photos

1,754,757 photos uploaded!

WunderBlogs® & News

Nearby

Air Quality

  Air Quality AQ Index Pollutant
Yesterday Good
PM2.5
Yesterday Good
OZONE
Current Good
PM2.5
Friday Good
PM2.5
Friday Good
OZONE
Saturday Good
PM2.5
Saturday Good
OZONE
Sunday Good
PM2.5
Sunday Good
OZONE
Monday Good
OZONE
Monday Good
PM2.5
Tuesday Good
OZONE
Tuesday Good
PM2.5

Snow Depth

Station Depth Elevation
White Pass E.S. 0 in 4500 ft
Grouse Camp 0 in 5380 ft
Wells Creek 0 in 4200 ft
Mount Crag 0 in 4050 ft
Rainy Pass 0 in 4780 ft

Earthquake Activity

City Distance Mag. Time & Date
Seabeck, Washington 61 miles 4.0 3:06 AM PDT
2014-09-17
Minimum magnitude displayed is 2.5.

Coastal Water Temperatures

Place Temperature
Port Townsend, WA 53.1 °F
Seattle, WA 55.9 °F
Friday Harbor, WA 52.0 °F
Tacoma, WA 55.0 °F

Nearby Weather Stations